createdAt,value
2018-08-25T00:00:15.471Z,0
2018-08-25T00:00:41.656Z,0
2018-08-25T00:01:07.819Z,0
2018-08-25T00:01:33.977Z,0
2018-08-25T00:02:00.112Z,0
2018-08-25T00:02:26.245Z,0
2018-08-25T00:02:52.410Z,0
2018-08-25T00:03:18.543Z,0
2018-08-25T00:03:44.815Z,0
2018-08-25T00:04:10.958Z,0
2018-08-25T00:04:37.127Z,0
2018-08-25T00:05:03.273Z,0
2018-08-25T00:05:29.475Z,0
2018-08-25T00:05:55.537Z,0
2018-08-25T00:06:21.720Z,0
2018-08-25T00:06:47.826Z,0
2018-08-25T00:07:13.986Z,0
2018-08-25T00:07:40.120Z,0
2018-08-25T00:08:06.297Z,0
2018-08-25T00:08:32.432Z,0
2018-08-25T00:08:58.625Z,0
2018-08-25T00:09:24.781Z,0
2018-08-25T00:09:50.938Z,0
2018-08-25T00:10:17.066Z,0
2018-08-25T00:10:43.200Z,0
2018-08-25T00:11:09.343Z,0
2018-08-25T00:11:35.511Z,0
2018-08-25T00:12:01.690Z,0
2018-08-25T00:12:28.001Z,0
2018-08-25T00:12:54.461Z,0
2018-08-25T00:13:20.630Z,0
2018-08-25T00:13:46.761Z,0
2018-08-25T00:14:12.904Z,0
2018-08-25T00:14:39.033Z,0
2018-08-25T00:15:05.174Z,0
2018-08-25T00:15:31.301Z,0
2018-08-25T00:15:57.464Z,0
2018-08-25T00:16:23.670Z,0
2018-08-25T00:16:49.807Z,0
2018-08-25T00:17:15.967Z,0
2018-08-25T00:17:42.096Z,0
2018-08-25T00:18:08.228Z,0
2018-08-25T00:18:34.360Z,0
2018-08-25T00:19:00.517Z,0
2018-08-25T00:19:26.647Z,0
2018-08-25T00:19:52.785Z,0
2018-08-25T00:20:18.917Z,0
2018-08-25T00:20:45.061Z,0
2018-08-25T00:21:11.221Z,0
2018-08-25T00:21:37.359Z,0
2018-08-25T00:22:03.493Z,0
2018-08-25T00:22:29.629Z,0
2018-08-25T00:22:55.783Z,0
2018-08-25T00:23:21.916Z,0
2018-08-25T00:23:48.058Z,0
2018-08-25T00:24:14.186Z,0
2018-08-25T00:24:40.323Z,0
2018-08-25T00:25:06.479Z,0
2018-08-25T00:25:32.636Z,0
2018-08-25T00:25:58.796Z,0
2018-08-25T00:26:24.934Z,0
2018-08-25T00:26:51.069Z,0
2018-08-25T00:27:17.205Z,0
2018-08-25T00:27:43.339Z,0
2018-08-25T00:28:09.525Z,0
2018-08-25T00:28:35.653Z,0
2018-08-25T00:29:01.792Z,0
2018-08-25T00:29:27.942Z,0
2018-08-25T00:29:54.080Z,0
2018-08-25T00:30:20.264Z,0
2018-08-25T00:30:46.397Z,0
2018-08-25T00:31:12.556Z,0
2018-08-25T00:31:38.691Z,0
2018-08-25T00:32:04.820Z,0
2018-08-25T00:32:30.986Z,0
2018-08-25T00:32:57.113Z,0
2018-08-25T00:33:23.270Z,0
2018-08-25T00:33:49.429Z,0
2018-08-25T00:34:15.563Z,0
2018-08-25T00:34:41.693Z,0
2018-08-25T00:35:07.832Z,0
2018-08-25T00:35:33.967Z,0
2018-08-25T00:36:00.098Z,0
2018-08-25T00:36:26.232Z,0
2018-08-25T00:36:52.370Z,0
2018-08-25T00:37:18.524Z,0
2018-08-25T00:37:44.652Z,0
2018-08-25T00:38:10.794Z,0
2018-08-25T00:38:36.924Z,0
2018-08-25T00:39:03.057Z,0
2018-08-25T00:39:29.189Z,0
2018-08-25T00:39:55.323Z,0
2018-08-25T00:40:21.462Z,0
2018-08-25T00:40:47.601Z,0
2018-08-25T00:41:13.756Z,0
2018-08-25T00:41:39.899Z,0
2018-08-25T00:42:06.029Z,0
2018-08-25T00:42:32.170Z,0
2018-08-25T00:42:58.298Z,0
2018-08-25T00:43:24.448Z,0
2018-08-25T00:43:50.587Z,0
2018-08-25T00:44:16.723Z,0
2018-08-25T00:44:42.854Z,0
2018-08-25T00:45:08.986Z,0
2018-08-25T00:45:35.125Z,0
2018-08-25T00:46:01.257Z,0
2018-08-25T00:46:27.387Z,0
2018-08-25T00:46:53.528Z,0
2018-08-25T00:47:19.669Z,0
2018-08-25T00:47:45.963Z,0
2018-08-25T00:48:11.985Z,0
2018-08-25T00:48:38.118Z,0
2018-08-25T00:49:04.271Z,0
2018-08-25T00:49:30.411Z,0
2018-08-25T00:49:56.534Z,0
2018-08-25T00:50:22.675Z,0
2018-08-25T00:50:48.804Z,0
2018-08-25T00:51:14.943Z,0
2018-08-25T00:51:41.076Z,0
2018-08-25T00:52:07.204Z,0
2018-08-25T00:52:33.340Z,0
2018-08-25T00:52:59.470Z,0
2018-08-25T00:53:25.603Z,0
2018-08-25T00:53:51.739Z,0
2018-08-25T00:54:17.903Z,0
2018-08-25T00:54:44.036Z,0
2018-08-25T00:55:10.174Z,0
2018-08-25T00:55:36.304Z,0
2018-08-25T00:56:02.463Z,0
2018-08-25T00:56:28.599Z,0
2018-08-25T00:56:54.736Z,0
2018-08-25T00:57:20.870Z,0
2018-08-25T00:57:47.008Z,0
2018-08-25T00:58:13.139Z,0
2018-08-25T00:58:39.275Z,0
2018-08-25T00:59:05.409Z,0
2018-08-25T00:59:31.656Z,0
2018-08-25T00:59:57.697Z,0
2018-08-25T01:00:23.829Z,0
2018-08-25T01:00:49.963Z,0
2018-08-25T01:01:16.118Z,0
2018-08-25T01:01:42.306Z,0
2018-08-25T01:02:08.462Z,0
2018-08-25T01:02:34.636Z,0
2018-08-25T01:03:00.790Z,0
2018-08-25T01:03:26.948Z,0
2018-08-25T01:03:53.081Z,0
2018-08-25T01:04:19.216Z,0
2018-08-25T01:04:45.344Z,0
2018-08-25T01:05:11.482Z,0
2018-08-25T01:05:37.620Z,0
2018-08-25T01:06:03.770Z,0
2018-08-25T01:06:29.909Z,0
2018-08-25T01:06:56.050Z,0
2018-08-25T01:07:22.198Z,0
2018-08-25T01:07:48.332Z,0
2018-08-25T01:08:14.469Z,0
2018-08-25T01:08:40.643Z,0
2018-08-25T01:09:06.784Z,0
2018-08-25T01:09:32.908Z,0
2018-08-25T01:09:59.041Z,0
2018-08-25T01:10:25.174Z,0
2018-08-25T01:10:51.311Z,0
2018-08-25T01:11:17.486Z,0
2018-08-25T01:11:43.644Z,0
2018-08-25T01:12:09.778Z,0
2018-08-25T01:12:35.912Z,0
2018-08-25T01:13:02.061Z,0
2018-08-25T01:13:28.189Z,0
2018-08-25T01:13:54.324Z,0
2018-08-25T01:14:20.465Z,0
2018-08-25T01:14:46.590Z,0
2018-08-25T01:15:12.728Z,0
2018-08-25T01:15:38.951Z,0
2018-08-25T01:16:05.037Z,0
2018-08-25T01:16:31.172Z,0
2018-08-25T01:16:57.312Z,0
2018-08-25T01:17:23.467Z,0
2018-08-25T01:17:49.606Z,0
2018-08-25T01:18:15.738Z,0
2018-08-25T01:18:41.915Z,0
2018-08-25T01:19:08.027Z,0
2018-08-25T01:19:34.160Z,0
2018-08-25T01:20:00.292Z,0
2018-08-25T01:20:26.464Z,0
2018-08-25T01:20:52.619Z,0
2018-08-25T01:21:18.758Z,0
2018-08-25T01:21:44.914Z,0
2018-08-25T01:22:11.071Z,0
2018-08-25T01:22:37.230Z,0
2018-08-25T01:23:03.360Z,0
2018-08-25T01:23:29.492Z,0
2018-08-25T01:23:55.621Z,0
2018-08-25T01:24:21.767Z,0
2018-08-25T01:24:47.897Z,0
2018-08-25T01:25:14.036Z,0
2018-08-25T01:25:40.160Z,0
2018-08-25T01:26:06.304Z,0
2018-08-25T01:26:32.463Z,0
2018-08-25T01:26:58.593Z,0
2018-08-25T01:27:24.720Z,0
2018-08-25T01:27:50.878Z,0
2018-08-25T01:28:17.018Z,0
2018-08-25T01:28:43.143Z,0
2018-08-25T01:29:09.288Z,0
2018-08-25T01:29:35.441Z,0
2018-08-25T01:30:01.576Z,0
2018-08-25T01:30:27.711Z,0
2018-08-25T01:30:53.848Z,0
2018-08-25T01:31:19.976Z,0
2018-08-25T01:31:46.134Z,0
2018-08-25T01:32:12.263Z,0
2018-08-25T01:32:38.408Z,0
2018-08-25T01:33:04.563Z,0
2018-08-25T01:33:30.692Z,0
2018-08-25T01:33:56.830Z,0
2018-08-25T01:34:22.986Z,0
2018-08-25T01:34:49.141Z,0
2018-08-25T01:35:15.275Z,0
2018-08-25T01:35:41.407Z,0
2018-08-25T01:36:07.543Z,0
2018-08-25T01:36:33.702Z,0
2018-08-25T01:36:59.838Z,0
2018-08-25T01:37:25.972Z,0
2018-08-25T01:37:52.133Z,0
2018-08-25T01:38:18.288Z,0
2018-08-25T01:38:44.455Z,0
2018-08-25T01:39:10.609Z,0
2018-08-25T01:39:36.749Z,0
2018-08-25T01:40:02.876Z,0
2018-08-25T01:40:29.015Z,0
2018-08-25T01:40:55.177Z,0
2018-08-25T01:41:21.317Z,0
2018-08-25T01:41:47.440Z,0
2018-08-25T01:42:13.592Z,0
2018-08-25T01:42:39.743Z,0
2018-08-25T01:43:05.879Z,0
2018-08-25T01:43:32.014Z,0
2018-08-25T01:43:58.139Z,0
2018-08-25T01:44:24.274Z,0
2018-08-25T01:44:50.413Z,0
2018-08-25T01:45:16.552Z,0
2018-08-25T01:45:42.700Z,0
2018-08-25T01:46:08.840Z,0
2018-08-25T01:46:34.979Z,0
2018-08-25T01:47:01.113Z,0
2018-08-25T01:47:27.244Z,0
2018-08-25T01:47:53.377Z,0
2018-08-25T01:48:19.528Z,0
2018-08-25T01:48:45.662Z,0
2018-08-25T01:49:11.802Z,0
2018-08-25T01:49:37.937Z,0
2018-08-25T01:50:04.065Z,0
2018-08-25T01:50:30.201Z,0
2018-08-25T01:50:56.338Z,0
2018-08-25T01:51:22.471Z,0
2018-08-25T01:51:48.600Z,0
2018-08-25T01:52:14.734Z,0
2018-08-25T01:52:40.896Z,0
2018-08-25T01:53:07.026Z,0
2018-08-25T01:53:33.169Z,0
2018-08-25T01:53:59.304Z,0
2018-08-25T01:54:25.438Z,0
2018-08-25T01:54:51.575Z,0
2018-08-25T01:55:17.732Z,0
2018-08-25T01:55:43.872Z,0
2018-08-25T01:56:10.000Z,0
2018-08-25T01:56:36.130Z,0
2018-08-25T01:57:02.269Z,0
2018-08-25T01:57:28.402Z,0
2018-08-25T01:57:54.530Z,0
2018-08-25T01:58:20.690Z,0
2018-08-25T01:58:46.846Z,0
2018-08-25T01:59:12.981Z,0
2018-08-25T01:59:39.147Z,0
2018-08-25T02:00:05.299Z,0
2018-08-25T02:00:31.454Z,0
2018-08-25T02:00:57.662Z,0
2018-08-25T02:01:23.803Z,0
2018-08-25T02:01:49.940Z,0
2018-08-25T02:02:16.078Z,0
2018-08-25T02:02:42.245Z,0
2018-08-25T02:03:08.344Z,0
2018-08-25T02:03:34.479Z,0
2018-08-25T02:04:00.634Z,0
2018-08-25T02:04:26.768Z,0
2018-08-25T02:04:52.920Z,0
2018-08-25T02:05:19.057Z,0
2018-08-25T02:05:45.185Z,0
2018-08-25T02:06:11.346Z,0
2018-08-25T02:06:37.474Z,0
2018-08-25T02:07:03.607Z,0
2018-08-25T02:07:29.744Z,0
2018-08-25T02:07:55.875Z,0
2018-08-25T02:08:22.012Z,0
2018-08-25T02:08:48.162Z,0
2018-08-25T02:09:14.321Z,0
2018-08-25T02:09:40.475Z,0
2018-08-25T02:10:06.613Z,0
2018-08-25T02:10:32.745Z,0
2018-08-25T02:10:58.877Z,0
2018-08-25T02:11:25.013Z,0
2018-08-25T02:11:51.142Z,0
2018-08-25T02:12:17.275Z,0
2018-08-25T02:12:43.460Z,0
2018-08-25T02:13:09.560Z,0
2018-08-25T02:13:35.693Z,0
2018-08-25T02:14:01.825Z,0
2018-08-25T02:14:27.960Z,0
2018-08-25T02:14:54.094Z,0
2018-08-25T02:15:20.221Z,0
2018-08-25T02:15:46.390Z,0
2018-08-25T02:16:12.525Z,0
2018-08-25T02:16:38.661Z,0
2018-08-25T02:17:04.791Z,0
2018-08-25T02:17:30.925Z,0
2018-08-25T02:17:57.059Z,0
2018-08-25T02:18:23.221Z,0
2018-08-25T02:18:49.380Z,0
2018-08-25T02:19:15.543Z,0
2018-08-25T02:19:41.669Z,0
2018-08-25T02:20:07.844Z,0
2018-08-25T02:20:33.973Z,0
2018-08-25T02:21:00.129Z,0
2018-08-25T02:21:26.291Z,0
2018-08-25T02:21:52.418Z,0
2018-08-25T02:22:18.577Z,0
2018-08-25T02:22:44.735Z,0
2018-08-25T02:23:10.869Z,0
2018-08-25T02:23:37.015Z,0
2018-08-25T02:24:03.167Z,0
2018-08-25T02:24:29.302Z,0
2018-08-25T02:24:55.462Z,0
2018-08-25T02:25:21.595Z,0
2018-08-25T02:25:47.733Z,0
2018-08-25T02:26:13.870Z,0
2018-08-25T02:26:40.004Z,0
2018-08-25T02:27:06.135Z,0
2018-08-25T02:27:32.271Z,0
2018-08-25T02:27:58.430Z,0
2018-08-25T02:28:24.584Z,0
2018-08-25T02:28:50.720Z,0
2018-08-25T02:29:16.849Z,0
2018-08-25T02:29:42.982Z,0
2018-08-25T02:30:09.137Z,0
2018-08-25T02:30:35.295Z,0
2018-08-25T02:31:01.455Z,0
2018-08-25T02:31:27.589Z,0
2018-08-25T02:31:53.769Z,0
2018-08-25T02:32:19.919Z,0
2018-08-25T02:32:46.090Z,0
2018-08-25T02:33:12.252Z,0
2018-08-25T02:33:38.379Z,0
2018-08-25T02:34:04.516Z,0
2018-08-25T02:34:30.649Z,0
2018-08-25T02:34:56.806Z,0
2018-08-25T02:35:22.979Z,0
2018-08-25T02:35:49.146Z,0
2018-08-25T02:36:15.294Z,0
2018-08-25T02:36:41.428Z,0
2018-08-25T02:37:07.557Z,0
2018-08-25T02:37:33.707Z,0
2018-08-25T02:37:59.841Z,0
2018-08-25T02:38:25.972Z,0
2018-08-25T02:38:52.246Z,0
2018-08-25T02:39:18.307Z,0
2018-08-25T02:39:44.444Z,0
2018-08-25T02:40:10.618Z,0
2018-08-25T02:40:36.780Z,0
2018-08-25T02:41:02.912Z,0
2018-08-25T02:41:29.048Z,0
2018-08-25T02:41:55.184Z,0
2018-08-25T02:42:21.338Z,0
2018-08-25T02:42:47.505Z,0
2018-08-25T02:43:13.657Z,0
2018-08-25T02:43:39.815Z,0
2018-08-25T02:44:05.952Z,0
2018-08-25T02:44:32.109Z,0
2018-08-25T02:44:58.245Z,0
2018-08-25T02:45:24.382Z,0
2018-08-25T02:45:50.518Z,0
2018-08-25T02:46:16.653Z,0
2018-08-25T02:46:42.815Z,0
2018-08-25T02:47:08.973Z,0
2018-08-25T02:47:35.140Z,0
2018-08-25T02:48:01.291Z,0
2018-08-25T02:48:27.451Z,0
2018-08-25T02:48:53.629Z,0
2018-08-25T02:49:19.765Z,0
2018-08-25T02:49:45.901Z,0
2018-08-25T02:50:12.059Z,0
2018-08-25T02:50:38.215Z,0
2018-08-25T02:51:04.370Z,0
2018-08-25T02:51:30.503Z,0
2018-08-25T02:51:56.654Z,0
2018-08-25T02:52:22.788Z,0
2018-08-25T02:52:48.929Z,0
2018-08-25T02:53:15.061Z,0
2018-08-25T02:53:41.193Z,0
2018-08-25T02:54:07.361Z,0
2018-08-25T02:54:33.519Z,0
2018-08-25T02:54:59.676Z,0
2018-08-25T02:55:25.811Z,0
2018-08-25T02:55:51.947Z,0
2018-08-25T02:56:18.078Z,0
2018-08-25T02:56:44.215Z,0
2018-08-25T02:57:10.353Z,0
2018-08-25T02:57:36.510Z,0
2018-08-25T02:58:02.638Z,0
2018-08-25T02:58:28.773Z,0
2018-08-25T02:58:54.912Z,0
2018-08-25T02:59:21.047Z,0
2018-08-25T02:59:47.202Z,0
2018-08-25T03:00:13.383Z,0
2018-08-25T03:00:39.549Z,0
2018-08-25T03:01:05.680Z,0
2018-08-25T03:01:31.819Z,0
2018-08-25T03:01:57.970Z,0
2018-08-25T03:02:24.138Z,0
2018-08-25T03:02:50.309Z,0
2018-08-25T03:03:16.466Z,0
2018-08-25T03:03:42.599Z,0
2018-08-25T03:04:08.733Z,0
2018-08-25T03:04:34.869Z,0
2018-08-25T03:05:01.031Z,0
2018-08-25T03:05:27.189Z,0
2018-08-25T03:05:53.319Z,0
2018-08-25T03:06:19.475Z,0
2018-08-25T03:06:45.641Z,0
2018-08-25T03:07:11.774Z,0
2018-08-25T03:07:37.909Z,0
2018-08-25T03:08:04.042Z,0
2018-08-25T03:08:30.211Z,0
2018-08-25T03:08:56.370Z,0
2018-08-25T03:09:22.504Z,0
2018-08-25T03:09:48.645Z,0
2018-08-25T03:10:14.797Z,0
2018-08-25T03:10:40.931Z,0
2018-08-25T03:11:07.061Z,0
2018-08-25T03:11:33.194Z,0
2018-08-25T03:11:59.337Z,0
2018-08-25T03:12:25.491Z,0
2018-08-25T03:12:51.626Z,0
2018-08-25T03:13:17.762Z,0
2018-08-25T03:13:43.954Z,0
2018-08-25T03:14:10.032Z,0
2018-08-25T03:14:36.159Z,0
2018-08-25T03:15:02.323Z,0
2018-08-25T03:15:28.470Z,0
2018-08-25T03:15:54.611Z,0
2018-08-25T03:16:20.759Z,0
2018-08-25T03:16:46.895Z,0
2018-08-25T03:17:13.032Z,0
2018-08-25T03:17:39.164Z,0
2018-08-25T03:18:05.300Z,0
2018-08-25T03:18:31.474Z,0
2018-08-25T03:18:57.583Z,0
2018-08-25T03:19:23.715Z,0
2018-08-25T03:19:49.847Z,0
2018-08-25T03:20:15.980Z,0
2018-08-25T03:20:42.158Z,0
2018-08-25T03:21:08.295Z,0
2018-08-25T03:21:34.485Z,0
2018-08-25T03:22:00.620Z,0
2018-08-25T03:22:26.779Z,0
2018-08-25T03:22:52.932Z,0
2018-08-25T03:23:19.070Z,0
2018-08-25T03:23:45.201Z,0
2018-08-25T03:24:11.377Z,0
2018-08-25T03:24:37.530Z,0
2018-08-25T03:25:03.659Z,0
2018-08-25T03:25:29.794Z,0
2018-08-25T03:25:55.931Z,0
2018-08-25T03:26:22.085Z,0
2018-08-25T03:26:48.220Z,0
2018-08-25T03:27:14.356Z,0
2018-08-25T03:27:40.513Z,0
2018-08-25T03:28:06.648Z,0
2018-08-25T03:28:32.789Z,0
2018-08-25T03:28:58.921Z,0
2018-08-25T03:29:25.051Z,0
2018-08-25T03:29:51.200Z,0
2018-08-25T03:30:17.361Z,0
2018-08-25T03:30:43.571Z,0
2018-08-25T03:31:09.753Z,0
2018-08-25T03:31:35.986Z,0
2018-08-25T03:32:02.113Z,0
2018-08-25T03:32:28.309Z,0
2018-08-25T03:32:54.444Z,0
2018-08-25T03:33:20.591Z,0
2018-08-25T03:33:46.756Z,0
2018-08-25T03:34:12.913Z,0
2018-08-25T03:34:39.065Z,0
2018-08-25T03:35:05.202Z,0
2018-08-25T03:35:31.342Z,0
2018-08-25T03:35:57.499Z,0
2018-08-25T03:36:23.625Z,0
2018-08-25T03:36:49.759Z,0
2018-08-25T03:37:15.894Z,0
2018-08-25T03:37:42.029Z,0
2018-08-25T03:38:08.162Z,0
2018-08-25T03:38:34.297Z,0
2018-08-25T03:39:00.429Z,0
2018-08-25T03:39:26.560Z,0
2018-08-25T03:39:52.719Z,0
2018-08-25T03:40:18.876Z,0
2018-08-25T03:40:45.012Z,0
2018-08-25T03:41:11.159Z,0
2018-08-25T03:41:37.293Z,0
2018-08-25T03:42:03.426Z,0
2018-08-25T03:42:29.558Z,0
2018-08-25T03:42:55.712Z,0
2018-08-25T03:43:21.880Z,0
2018-08-25T03:43:47.999Z,0
2018-08-25T03:44:14.129Z,0
2018-08-25T03:44:40.265Z,0
2018-08-25T03:45:06.398Z,0
2018-08-25T03:45:32.553Z,0
2018-08-25T03:45:58.690Z,0
2018-08-25T03:46:24.823Z,0
2018-08-25T03:46:50.982Z,0
2018-08-25T03:47:17.133Z,0
2018-08-25T03:47:43.261Z,0
2018-08-25T03:48:09.448Z,0
2018-08-25T03:48:35.612Z,0
2018-08-25T03:49:01.764Z,0
2018-08-25T03:49:27.900Z,0
2018-08-25T03:49:54.035Z,0
2018-08-25T03:50:20.203Z,0
2018-08-25T03:50:46.345Z,0
2018-08-25T03:51:12.466Z,0
2018-08-25T03:51:38.630Z,0
2018-08-25T03:52:04.769Z,0
2018-08-25T03:52:30.892Z,0
2018-08-25T03:52:57.068Z,0
2018-08-25T03:53:23.209Z,0
2018-08-25T03:53:49.369Z,0
2018-08-25T03:54:15.506Z,0
2018-08-25T03:54:41.636Z,0
2018-08-25T03:55:07.766Z,0
2018-08-25T03:55:34.034Z,0
2018-08-25T03:56:00.062Z,0
2018-08-25T03:56:26.214Z,0
2018-08-25T03:56:52.350Z,0
2018-08-25T03:57:18.481Z,0
2018-08-25T03:57:44.617Z,0
2018-08-25T03:58:10.767Z,0
2018-08-25T03:58:36.938Z,0
2018-08-25T03:59:03.118Z,0
2018-08-25T03:59:29.279Z,0
2018-08-25T03:59:55.412Z,0
2018-08-25T04:00:21.567Z,0
2018-08-25T04:00:47.726Z,0
2018-08-25T04:01:13.858Z,0
2018-08-25T04:01:40.072Z,0
2018-08-25T04:02:06.194Z,0
2018-08-25T04:02:32.333Z,0
2018-08-25T04:02:58.466Z,0
2018-08-25T04:03:24.646Z,0
2018-08-25T04:03:50.792Z,0
2018-08-25T04:04:16.952Z,0
2018-08-25T04:04:43.080Z,0
2018-08-25T04:05:09.262Z,0
2018-08-25T04:05:35.393Z,0
2018-08-25T04:06:01.560Z,0
2018-08-25T04:06:27.690Z,0
2018-08-25T04:06:53.832Z,0
2018-08-25T04:07:19.980Z,0
2018-08-25T04:07:46.116Z,0
2018-08-25T04:08:12.244Z,0
2018-08-25T04:08:38.394Z,0
2018-08-25T04:09:04.554Z,0
2018-08-25T04:09:30.714Z,0
2018-08-25T04:09:56.844Z,0
2018-08-25T04:10:23.004Z,0
2018-08-25T04:10:49.163Z,0
2018-08-25T04:11:15.305Z,0
2018-08-25T04:11:41.454Z,0
2018-08-25T04:12:07.584Z,0
2018-08-25T04:12:33.714Z,0
2018-08-25T04:12:59.849Z,0
2018-08-25T04:13:25.981Z,0
2018-08-25T04:13:52.118Z,0
2018-08-25T04:14:18.275Z,0
2018-08-25T04:14:44.497Z,0
2018-08-25T04:15:10.619Z,0
2018-08-25T04:15:36.750Z,0
2018-08-25T04:16:02.910Z,0
2018-08-25T04:16:29.046Z,0
2018-08-25T04:16:55.182Z,0
2018-08-25T04:17:21.311Z,0
2018-08-25T04:17:47.476Z,0
2018-08-25T04:18:13.600Z,0
2018-08-25T04:18:39.770Z,0
2018-08-25T04:19:05.925Z,0
2018-08-25T04:19:32.115Z,0
2018-08-25T04:19:58.296Z,0
2018-08-25T04:20:24.458Z,0
2018-08-25T04:20:50.597Z,0
2018-08-25T04:21:16.752Z,0
2018-08-25T04:21:42.886Z,0
2018-08-25T04:22:09.031Z,0
2018-08-25T04:22:35.233Z,0
2018-08-25T04:23:01.369Z,0
2018-08-25T04:23:27.506Z,0
2018-08-25T04:23:53.700Z,0
2018-08-25T04:24:19.842Z,0
2018-08-25T04:24:45.977Z,0
2018-08-25T04:25:12.108Z,0
2018-08-25T04:25:38.243Z,0
2018-08-25T04:26:04.376Z,0
2018-08-25T04:26:30.508Z,0
2018-08-25T04:26:56.651Z,0
2018-08-25T04:27:22.802Z,0
2018-08-25T04:27:48.931Z,0
2018-08-25T04:28:15.092Z,0
2018-08-25T04:28:41.227Z,0
2018-08-25T04:29:07.395Z,0
2018-08-25T04:29:33.544Z,0
2018-08-25T04:29:59.725Z,0
2018-08-25T04:30:25.884Z,0
2018-08-25T04:30:52.018Z,0
2018-08-25T04:31:18.163Z,0
2018-08-25T04:31:44.354Z,0
2018-08-25T04:32:10.498Z,5
2018-08-25T04:32:36.689Z,5
2018-08-25T04:33:02.827Z,5
2018-08-25T04:33:29.002Z,5
2018-08-25T04:33:55.112Z,5
2018-08-25T04:34:21.286Z,5
2018-08-25T04:34:47.415Z,5
2018-08-25T04:35:13.606Z,5
2018-08-25T04:35:39.769Z,5
2018-08-25T04:36:05.905Z,5
2018-08-25T04:36:32.032Z,5
2018-08-25T04:36:58.165Z,5
2018-08-25T04:37:24.340Z,5
2018-08-25T04:37:50.478Z,5
2018-08-25T04:38:16.639Z,5
2018-08-25T04:38:42.765Z,5
2018-08-25T04:39:08.902Z,5
2018-08-25T04:39:35.061Z,5
2018-08-25T04:40:01.195Z,5
2018-08-25T04:40:27.350Z,5
2018-08-25T04:40:53.487Z,5
2018-08-25T04:41:19.727Z,5
2018-08-25T04:41:45.864Z,5
2018-08-25T04:42:11.996Z,5
2018-08-25T04:42:38.154Z,5
2018-08-25T04:43:04.309Z,5
2018-08-25T04:43:30.446Z,5
2018-08-25T04:43:56.603Z,5
2018-08-25T04:44:22.765Z,5
2018-08-25T04:44:48.896Z,5
2018-08-25T04:45:15.057Z,5
2018-08-25T04:45:41.208Z,5
2018-08-25T04:46:07.369Z,5
2018-08-25T04:46:33.542Z,5
2018-08-25T04:46:59.698Z,5
2018-08-25T04:47:25.833Z,5
2018-08-25T04:47:51.995Z,10
2018-08-25T04:48:18.141Z,10
2018-08-25T04:48:44.301Z,10
2018-08-25T04:49:10.435Z,10
2018-08-25T04:49:36.567Z,10
2018-08-25T04:50:02.744Z,10
2018-08-25T04:50:28.879Z,10
2018-08-25T04:50:55.012Z,10
2018-08-25T04:51:21.148Z,15
2018-08-25T04:51:47.275Z,15
2018-08-25T04:52:13.406Z,15
2018-08-25T04:52:39.536Z,15
2018-08-25T04:53:05.714Z,10
2018-08-25T04:53:31.865Z,10
2018-08-25T04:53:57.996Z,10
2018-08-25T04:54:24.140Z,15
2018-08-25T04:54:50.318Z,15
2018-08-25T04:55:16.453Z,15
2018-08-25T04:55:42.615Z,15
2018-08-25T04:56:08.753Z,15
2018-08-25T04:56:34.880Z,15
2018-08-25T04:57:01.041Z,15
2018-08-25T04:57:27.199Z,15
2018-08-25T04:57:53.332Z,15
2018-08-25T04:58:19.460Z,15
2018-08-25T04:58:45.598Z,20
2018-08-25T04:59:11.751Z,20
2018-08-25T04:59:37.883Z,20
2018-08-25T05:00:04.019Z,20
2018-08-25T05:00:30.157Z,20
2018-08-25T05:00:56.331Z,20
2018-08-25T05:01:22.471Z,20
2018-08-25T05:01:48.661Z,20
2018-08-25T05:02:14.774Z,20
2018-08-25T05:02:40.909Z,20
2018-08-25T05:03:07.037Z,20
2018-08-25T05:03:33.235Z,20
2018-08-25T05:03:59.365Z,25
2018-08-25T05:04:25.523Z,25
2018-08-25T05:04:51.654Z,25
2018-08-25T05:05:17.790Z,25
2018-08-25T05:05:43.941Z,25
2018-08-25T05:06:10.089Z,25
2018-08-25T05:06:36.240Z,25
2018-08-25T05:07:02.405Z,25
2018-08-25T05:07:28.587Z,25
2018-08-25T05:07:54.781Z,30
2018-08-25T05:08:20.965Z,30
2018-08-25T05:08:47.101Z,25
2018-08-25T05:09:13.231Z,25
2018-08-25T05:09:39.359Z,25
2018-08-25T05:10:05.543Z,25
2018-08-25T05:10:31.680Z,25
2018-08-25T05:10:57.839Z,25
2018-08-25T05:11:23.998Z,20
2018-08-25T05:11:50.190Z,20
2018-08-25T05:12:16.344Z,20
2018-08-25T05:12:42.484Z,20
2018-08-25T05:13:08.641Z,20
2018-08-25T05:13:34.775Z,15
2018-08-25T05:14:00.998Z,15
2018-08-25T05:14:27.132Z,15
2018-08-25T05:14:53.267Z,10
2018-08-25T05:15:19.423Z,10
2018-08-25T05:15:45.559Z,15
2018-08-25T05:16:11.690Z,15
2018-08-25T05:16:37.820Z,20
2018-08-25T05:17:03.953Z,20
2018-08-25T05:17:30.092Z,20
2018-08-25T05:17:56.248Z,25
2018-08-25T05:18:22.378Z,25
2018-08-25T05:18:48.559Z,25
2018-08-25T05:19:14.694Z,30
2018-08-25T05:19:40.847Z,30
2018-08-25T05:20:07.011Z,35
2018-08-25T05:20:33.144Z,35
2018-08-25T05:20:59.293Z,40
2018-08-25T05:21:25.444Z,40
2018-08-25T05:21:51.617Z,40
2018-08-25T05:22:17.777Z,35
2018-08-25T05:22:43.899Z,35
2018-08-25T05:23:10.029Z,35
2018-08-25T05:23:36.187Z,35
2018-08-25T05:24:02.350Z,35
2018-08-25T05:24:28.484Z,35
2018-08-25T05:24:54.615Z,35
2018-08-25T05:25:20.798Z,35
2018-08-25T05:25:46.932Z,30
2018-08-25T05:26:13.097Z,25
2018-08-25T05:26:39.255Z,25
2018-08-25T05:27:05.391Z,25
2018-08-25T05:27:31.540Z,30
2018-08-25T05:27:57.678Z,35
2018-08-25T05:28:23.836Z,40
2018-08-25T05:28:49.981Z,45
2018-08-25T05:29:16.122Z,45
2018-08-25T05:29:42.251Z,50
2018-08-25T05:30:08.460Z,50
2018-08-25T05:30:34.649Z,50
2018-08-25T05:31:00.783Z,50
2018-08-25T05:31:26.910Z,45
2018-08-25T05:31:53.043Z,35
2018-08-25T05:32:19.200Z,30
2018-08-25T05:32:45.329Z,30
2018-08-25T05:33:11.461Z,30
2018-08-25T05:33:37.593Z,35
2018-08-25T05:34:03.735Z,35
2018-08-25T05:34:29.864Z,40
2018-08-25T05:34:56.000Z,35
2018-08-25T05:35:22.141Z,35
2018-08-25T05:35:48.280Z,30
2018-08-25T05:36:14.410Z,25
2018-08-25T05:36:40.546Z,20
2018-08-25T05:37:06.697Z,20
2018-08-25T05:37:32.829Z,25
2018-08-25T05:37:58.986Z,30
2018-08-25T05:38:25.120Z,30
2018-08-25T05:38:51.283Z,30
2018-08-25T05:39:17.433Z,20
2018-08-25T05:39:43.590Z,15
2018-08-25T05:40:09.753Z,15
2018-08-25T05:40:35.932Z,10
2018-08-25T05:41:02.097Z,15
2018-08-25T05:41:28.224Z,20
2018-08-25T05:41:54.363Z,20
2018-08-25T05:42:20.489Z,15
2018-08-25T05:42:46.621Z,15
2018-08-25T05:43:12.761Z,20
2018-08-25T05:43:38.915Z,20
2018-08-25T05:44:05.062Z,25
2018-08-25T05:44:31.197Z,30
2018-08-25T05:44:57.335Z,30
2018-08-25T05:45:23.475Z,25
2018-08-25T05:45:49.604Z,20
2018-08-25T05:46:15.736Z,25
2018-08-25T05:46:41.866Z,30
2018-08-25T05:47:07.997Z,35
2018-08-25T05:47:34.130Z,50
2018-08-25T05:48:00.266Z,55
2018-08-25T05:48:26.401Z,40
2018-08-25T05:48:52.535Z,30
2018-08-25T05:49:18.690Z,25
2018-08-25T05:49:44.825Z,25
2018-08-25T05:50:10.980Z,30
2018-08-25T05:50:37.110Z,40
2018-08-25T05:51:03.274Z,40
2018-08-25T05:51:29.432Z,50
2018-08-25T05:51:55.583Z,60
2018-08-25T05:52:21.762Z,60
2018-08-25T05:52:47.902Z,65
2018-08-25T05:53:14.032Z,65
2018-08-25T05:53:40.226Z,60
2018-08-25T05:54:06.331Z,50
2018-08-25T05:54:32.463Z,50
2018-08-25T05:54:58.593Z,65
2018-08-25T05:55:24.735Z,80
2018-08-25T05:55:50.868Z,80
2018-08-25T05:56:17.025Z,80
2018-08-25T05:56:43.208Z,90
2018-08-25T05:57:09.341Z,95
2018-08-25T05:57:35.506Z,95
2018-08-25T05:58:01.637Z,100
2018-08-25T05:58:27.793Z,100
2018-08-25T05:58:53.951Z,95
2018-08-25T05:59:20.090Z,90
2018-08-25T05:59:46.226Z,95
2018-08-25T06:00:12.384Z,90
2018-08-25T06:00:38.511Z,85
2018-08-25T06:01:04.661Z,85
2018-08-25T06:01:30.824Z,90
2018-08-25T06:01:56.963Z,100
2018-08-25T06:02:23.133Z,100
2018-08-25T06:02:49.271Z,105
2018-08-25T06:03:15.399Z,110
2018-08-25T06:03:41.541Z,115
2018-08-25T06:04:07.672Z,120
2018-08-25T06:04:33.809Z,120
2018-08-25T06:04:59.966Z,110
2018-08-25T06:05:26.100Z,105
2018-08-25T06:05:52.232Z,100
2018-08-25T06:06:18.373Z,90
2018-08-25T06:06:44.616Z,85
2018-08-25T06:07:10.641Z,85
2018-08-25T06:07:36.800Z,85
2018-08-25T06:08:02.989Z,95
2018-08-25T06:08:29.124Z,90
2018-08-25T06:08:55.252Z,75
2018-08-25T06:09:21.390Z,65
2018-08-25T06:09:47.527Z,60
2018-08-25T06:10:13.680Z,65
2018-08-25T06:10:39.810Z,75
2018-08-25T06:11:05.956Z,95
2018-08-25T06:11:32.079Z,105
2018-08-25T06:11:58.216Z,110
2018-08-25T06:12:24.356Z,110
2018-08-25T06:12:50.481Z,90
2018-08-25T06:13:16.611Z,75
2018-08-25T06:13:42.784Z,70
2018-08-25T06:14:08.911Z,75
2018-08-25T06:14:35.043Z,75
2018-08-25T06:15:01.182Z,75
2018-08-25T06:15:27.319Z,85
2018-08-25T06:15:53.475Z,95
2018-08-25T06:16:19.609Z,100
2018-08-25T06:16:45.756Z,110
2018-08-25T06:17:11.895Z,120
2018-08-25T06:17:38.136Z,130
2018-08-25T06:18:04.215Z,140
2018-08-25T06:18:30.349Z,130
2018-08-25T06:18:56.482Z,130
2018-08-25T06:19:22.618Z,130
2018-08-25T06:19:48.752Z,125
2018-08-25T06:20:14.891Z,120
2018-08-25T06:20:41.023Z,125
2018-08-25T06:21:07.143Z,140
2018-08-25T06:21:33.285Z,155
2018-08-25T06:21:59.428Z,185
2018-08-25T06:22:25.561Z,220
2018-08-25T06:22:51.700Z,235